Time;durP1;ratioP1;P1;durP2;ratioP2;P2;SDS_P1;SDS_P2;PMS_P1;PMS_P2;Temp;Humidity;BMP_temperature;BMP_pressure;BME280_temperature;BME280_humidity;BME280_pressure;Samples;Min_cycle;Max_cycle;Signal;HPM_P1;HPM_P2
2021/03/24 00:01:34;;;;;;;24.45;13.02;;;;;;;;;;5050589;28;20087;-87
2021/03/24 00:04:00;;;;;;;21.88;12.77;;;;;;;;;;5051607;28;20453;-87
2021/03/24 00:06:26;;;;;;;24.52;13.32;;;;;;;;;;5074472;28;20067;-86
2021/03/24 00:08:52;;;;;;;32.22;14.77;;;;;;;;;;5050829;28;20029;-86
2021/03/24 00:11:18;;;;;;;26.90;14.52;;;;;;;;;;5054143;28;20318;-87
2021/03/24 00:13:44;;;;;;;28.50;13.82;;;;;;;;;;5061831;28;20056;-88
2021/03/24 00:16:10;;;;;;;25.23;12.60;;;;;;;;;;5050844;28;20048;-87
2021/03/24 00:18:36;;;;;;;23.15;12.70;;;;;;;;;;5049781;28;20107;-87
2021/03/24 00:21:03;;;;;;;22.63;12.65;;;;;;;;;;5049914;28;20025;-87
2021/03/24 00:23:29;;;;;;;22.15;11.52;;;;;;;;;;5050513;28;20052;-87
2021/03/24 00:25:55;;;;;;;18.20;10.32;;;;;;;;;;5050432;28;20083;-87
2021/03/24 00:28:21;;;;;;;20.50;10.57;;;;;;;;;;5049861;28;20090;-87
2021/03/24 00:30:48;;;;;;;22.77;10.93;;;;;;;;;;5050372;28;20044;-86
2021/03/24 00:33:17;;;;;;;18.95;10.45;;;;;;;;;;5055272;28;20419;-87
2021/03/24 00:35:43;;;;;;;17.33;9.95;;;;;;;;;;5049453;28;20033;-86
2021/03/24 00:38:10;;;;;;;18.52;9.50;;;;;;;;;;5048971;28;20052;-87
2021/03/24 00:40:38;;;;;;;19.98;9.13;;;;;;;;;;5056786;28;20032;-87
2021/03/24 00:43:04;;;;;;;16.55;9.60;;;;;;;;;;5052665;28;20128;-86
2021/03/24 00:45:30;;;;;;;20.85;9.15;;;;;;;;;;5050264;28;20021;-87
2021/03/24 00:47:56;;;;;;;16.83;9.15;;;;;;;;;;5050226;28;20025;-87
2021/03/24 00:50:24;;;;;;;15.25;9.00;;;;;;;;;;5043946;28;20170;-86
2021/03/24 00:52:50;;;;;;;16.02;8.57;;;;;;;;;;5051109;28;20057;-86
2021/03/24 00:55:16;;;;;;;14.32;8.93;;;;;;;;;;5050433;28;20091;-86
2021/03/24 00:57:42;;;;;;;18.50;9.70;;;;;;;;;;5063727;28;20028;-87
2021/03/24 01:00:11;;;;;;;16.15;8.80;;;;;;;;;;5050268;28;20025;-87
2021/03/24 01:02:37;;;;;;;17.15;8.75;;;;;;;;;;5051010;28;20460;-86
2021/03/24 01:05:05;;;;;;;17.02;9.10;;;;;;;;;;5050613;28;20029;-86
2021/03/24 01:07:31;;;;;;;17.55;9.25;;;;;;;;;;5051239;28;20025;-86
2021/03/24 01:09:57;;;;;;;18.08;9.13;;;;;;;;;;5049870;28;20040;-86
2021/03/24 01:12:23;;;;;;;15.63;8.70;;;;;;;;;;5050065;28;20021;-86
2021/03/24 01:14:49;;;;;;;18.13;9.27;;;;;;;;;;5055656;28;20110;-87
2021/03/24 01:17:15;;;;;;;18.30;8.85;;;;;;;;;;5045395;28;20123;-87
2021/03/24 01:19:41;;;;;;;16.67;8.45;;;;;;;;;;5059455;28;20110;-87
2021/03/24 01:22:07;;;;;;;16.23;9.35;;;;;;;;;;5053298;28;20072;-86
2021/03/24 01:24:33;;;;;;;20.20;10.88;;;;;;;;;;5056830;28;20040;-87
2021/03/24 01:26:59;;;;;;;19.30;9.93;;;;;;;;;;5063081;28;20040;-87
2021/03/24 01:29:25;;;;;;;20.13;9.40;;;;;;;;;;5053442;28;20025;-86
2021/03/24 01:31:51;;;;;;;17.02;9.50;;;;;;;;;;5053721;28;20017;-87
2021/03/24 01:34:17;;;;;;;18.23;9.55;;;;;;;;;;5053700;28;20465;-86
2021/03/24 01:36:43;;;;;;;20.00;11.95;;;;;;;;;;5052190;28;20028;-86
2021/03/24 01:39:09;;;;;;;19.45;10.73;;;;;;;;;;5053619;28;20404;-86
2021/03/24 01:41:35;;;;;;;16.98;9.27;;;;;;;;;;5054469;28;20055;-86
2021/03/24 01:44:01;;;;;;;22.45;10.15;;;;;;;;;;5053742;28;20025;-86
2021/03/24 01:46:35;;;;;;;16.25;9.25;;;;;;;;;;5050803;28;20021;-86
2021/03/24 01:49:04;;;;;;;20.70;10.15;;;;;;;;;;5054223;28;20349;-86
2021/03/24 01:51:35;;;;;;;21.05;10.25;;;;;;;;;;5053315;28;20025;-86
2021/03/24 01:54:01;;;;;;;19.90;10.65;;;;;;;;;;5051633;28;20429;-86
2021/03/24 01:56:29;;;;;;;22.90;11.80;;;;;;;;;;5060349;28;20029;-86
2021/03/24 01:58:55;;;;;;;19.55;11.10;;;;;;;;;;5070536;28;20086;-86
2021/03/24 02:01:21;;;;;;;20.38;10.00;;;;;;;;;;5052915;28;20026;-86
2021/03/24 02:03:47;;;;;;;20.73;10.05;;;;;;;;;;5052885;28;20027;-87
2021/03/24 02:06:17;;;;;;;19.70;9.77;;;;;;;;;;5064279;28;20036;-86
2021/03/24 02:08:44;;;;;;;19.25;10.70;;;;;;;;;;5052821;28;20032;-86
2021/03/24 02:11:25;;;;;;;21.85;10.80;;;;;;;;;;5069444;28;20025;-86
2021/03/24 02:13:54;;;;;;;16.70;9.80;;;;;;;;;;5055749;28;20514;-86
2021/03/24 02:16:23;;;;;;;17.27;9.07;;;;;;;;;;5065075;28;20028;-86
2021/03/24 02:18:50;;;;;;;16.73;9.85;;;;;;;;;;5054430;28;20427;-86
2021/03/24 02:21:18;;;;;;;17.38;9.38;;;;;;;;;;5052791;28;20387;-87
2021/03/24 02:23:47;;;;;;;18.45;9.23;;;;;;;;;;5053851;28;20049;-87
2021/03/24 02:26:32;;;;;;;16.75;9.68;;;;;;;;;;5051658;28;20127;-87
2021/03/24 02:28:59;;;;;;;17.67;9.48;;;;;;;;;;5045787;28;20037;-87
2021/03/24 02:31:26;;;;;;;17.77;8.82;;;;;;;;;;5054174;28;20024;-87
2021/03/24 02:33:53;;;;;;;19.00;9.45;;;;;;;;;;5052169;28;20029;-87
2021/03/24 02:36:20;;;;;;;18.27;9.40;;;;;;;;;;5052356;28;20033;-87
2021/03/24 02:38:47;;;;;;;16.45;8.35;;;;;;;;;;5057023;28;20090;-86
2021/03/24 02:41:14;;;;;;;14.13;8.35;;;;;;;;;;5052658;28;20112;-86
2021/03/24 02:43:42;;;;;;;15.23;8.75;;;;;;;;;;5043790;28;20030;-86
2021/03/24 02:46:09;;;;;;;14.02;8.38;;;;;;;;;;5053488;28;20044;-86
2021/03/24 02:48:37;;;;;;;19.38;9.88;;;;;;;;;;5052798;28;20024;-86
2021/03/24 02:51:05;;;;;;;15.90;9.27;;;;;;;;;;5050744;28;20496;-87
2021/03/24 02:53:32;;;;;;;15.77;8.65;;;;;;;;;;5057958;28;20473;-86
2021/03/24 02:56:00;;;;;;;15.80;8.98;;;;;;;;;;5055134;28;20047;-86
2021/03/24 02:58:26;;;;;;;18.10;9.10;;;;;;;;;;5048867;28;20449;-86
2021/03/24 03:00:52;;;;;;;20.48;9.25;;;;;;;;;;5043572;28;20039;-87
2021/03/24 03:03:21;;;;;;;15.07;9.38;;;;;;;;;;5044966;28;20111;-87
2021/03/24 03:05:48;;;;;;;15.43;9.30;;;;;;;;;;5052020;28;20476;-86
2021/03/24 03:08:19;;;;;;;16.95;8.85;;;;;;;;;;5046675;28;20025;-86
2021/03/24 03:10:48;;;;;;;13.15;7.88;;;;;;;;;;5052031;28;20029;-86
2021/03/24 03:13:23;;;;;;;14.48;8.88;;;;;;;;;;5059945;28;20115;-86
2021/03/24 03:15:55;;;;;;;14.95;8.75;;;;;;;;;;5051501;28;20099;-87
2021/03/24 03:18:29;;;;;;;19.38;9.90;;;;;;;;;;5058451;28;20390;-86
2021/03/24 03:20:59;;;;;;;18.67;10.18;;;;;;;;;;5057347;28;20063;-86
2021/03/24 03:23:27;;;;;;;16.90;8.55;;;;;;;;;;5050986;28;20049;-86
2021/03/24 03:25:55;;;;;;;17.13;8.55;;;;;;;;;;5052975;28;20495;-86
2021/03/24 03:28:21;;;;;;;17.48;9.77;;;;;;;;;;5051020;28;20033;-86
2021/03/24 03:30:52;;;;;;;18.38;10.32;;;;;;;;;;5051855;28;20391;-86
2021/03/24 03:33:21;;;;;;;16.63;8.52;;;;;;;;;;5051154;28;20148;-86
2021/03/24 03:35:47;;;;;;;15.82;8.77;;;;;;;;;;5061838;28;20540;-87
2021/03/24 03:38:15;;;;;;;13.40;7.90;;;;;;;;;;5059733;28;20128;-86
2021/03/24 03:40:42;;;;;;;19.20;9.80;;;;;;;;;;5052681;28;20402;-86
2021/03/24 03:43:09;;;;;;;16.42;8.68;;;;;;;;;;5058676;28;20028;-86
2021/03/24 03:45:38;;;;;;;17.25;8.80;;;;;;;;;;5053168;28;20450;-87
2021/03/24 03:48:04;;;;;;;18.27;9.02;;;;;;;;;;5045827;28;20045;-86
2021/03/24 03:50:30;;;;;;;16.40;9.18;;;;;;;;;;5050497;28;20119;-87
2021/03/24 03:53:06;;;;;;;15.98;9.57;;;;;;;;;;5050922;28;20025;-86
2021/03/24 03:55:47;;;;;;;16.42;9.10;;;;;;;;;;5035513;28;20021;-86
2021/03/24 03:58:27;;;;;;;13.95;8.15;;;;;;;;;;5054845;28;20017;-86
2021/03/24 04:01:06;;;;;;;15.43;8.73;;;;;;;;;;5052358;28;20061;-86
2021/03/24 04:03:35;;;;;;;12.40;8.20;;;;;;;;;;5050003;28;20068;-86
2021/03/24 04:06:07;;;;;;;17.80;8.90;;;;;;;;;;5054865;28;20417;-86
2021/03/24 04:08:34;;;;;;;17.60;8.90;;;;;;;;;;5038381;28;20090;-86
2021/03/24 04:11:03;;;;;;;19.35;9.25;;;;;;;;;;5050634;28;20503;-86
2021/03/24 04:13:31;;;;;;;15.88;8.43;;;;;;;;;;5050621;28;20597;-86
2021/03/24 04:15:58;;;;;;;15.27;8.80;;;;;;;;;;5050586;28;20067;-86
2021/03/24 04:18:51;;;;;;;14.73;8.98;;;;;;;;;;5047015;28;20018;-86
2021/03/24 04:21:18;;;;;;;16.05;9.07;;;;;;;;;;5014033;28;20028;-86
2021/03/24 04:23:46;;;;;;;19.20;9.30;;;;;;;;;;5050187;28;20056;-86
2021/03/24 04:26:19;;;;;;;17.95;8.65;;;;;;;;;;5050192;28;20033;-86
2021/03/24 04:28:47;;;;;;;17.60;8.25;;;;;;;;;;5050747;28;20473;-87
2021/03/24 04:31:14;;;;;;;14.68;8.50;;;;;;;;;;5050630;28;20071;-87
2021/03/24 04:33:41;;;;;;;17.83;9.05;;;;;;;;;;5050093;28;20021;-87
2021/03/24 04:36:30;;;;;;;13.43;8.35;;;;;;;;;;5051879;28;20021;-86
2021/03/24 04:38:58;;;;;;;16.80;8.43;;;;;;;;;;5042546;28;20489;-86
2021/03/24 04:41:27;;;;;;;14.63;8.05;;;;;;;;;;5050838;28;20025;-86
2021/03/24 04:43:57;;;;;;;18.40;9.13;;;;;;;;;;5050507;28;20124;-86
2021/03/24 04:46:25;;;;;;;16.08;8.98;;;;;;;;;;5049329;28;20044;-86
2021/03/24 04:48:54;;;;;;;16.05;8.25;;;;;;;;;;5064367;28;20039;-86
2021/03/24 04:51:22;;;;;;;16.48;9.27;;;;;;;;;;5054024;28;20036;-86
2021/03/24 04:53:51;;;;;;;15.52;8.13;;;;;;;;;;5065405;28;20025;-87
2021/03/24 04:56:18;;;;;;;14.13;8.73;;;;;;;;;;5054703;28;20384;-87
2021/03/24 04:58:52;;;;;;;15.57;9.13;;;;;;;;;;5054524;28;20112;-87
2021/03/24 05:01:36;;;;;;;18.38;9.73;;;;;;;;;;5050617;28;20025;-87
2021/03/24 05:04:07;;;;;;;14.95;9.05;;;;;;;;;;5054759;28;20032;-87
2021/03/24 05:06:44;;;;;;;17.58;9.15;;;;;;;;;;5051039;28;20033;-87
2021/03/24 05:09:10;;;;;;;15.55;9.35;;;;;;;;;;5054775;28;20036;-87
2021/03/24 05:11:40;;;;;;;14.13;8.70;;;;;;;;;;5069489;28;20435;-87
2021/03/24 05:14:17;;;;;;;17.40;9.90;;;;;;;;;;5077217;28;20017;-86
2021/03/24 05:16:44;;;;;;;16.63;9.85;;;;;;;;;;5089317;28;20035;-86
2021/03/24 05:19:19;;;;;;;19.75;10.48;;;;;;;;;;5059512;28;20290;-86
2021/03/24 05:21:54;;;;;;;19.58;9.85;;;;;;;;;;5054351;28;20484;-86
2021/03/24 05:24:28;;;;;;;17.98;10.25;;;;;;;;;;5067199;28;20533;-86
2021/03/24 05:27:00;;;;;;;19.05;10.65;;;;;;;;;;5053948;28;20120;-86
2021/03/24 05:29:28;;;;;;;17.05;10.18;;;;;;;;;;5055173;28;20033;-86
2021/03/24 05:31:56;;;;;;;24.45;11.80;;;;;;;;;;5051187;28;20017;-86
2021/03/24 05:34:25;;;;;;;19.00;10.95;;;;;;;;;;5053748;28;20619;-86
2021/03/24 05:36:51;;;;;;;24.80;12.15;;;;;;;;;;5051898;28;20020;-86
2021/03/24 05:39:25;;;;;;;20.88;11.43;;;;;;;;;;5043959;28;20057;-87
2021/03/24 05:41:56;;;;;;;19.35;11.60;;;;;;;;;;5081890;28;20028;-87
2021/03/24 05:44:41;;;;;;;22.95;11.15;;;;;;;;;;5054399;28;20491;-87
2021/03/24 05:47:26;;;;;;;21.85;11.98;;;;;;;;;;5051047;28;20379;-87
2021/03/24 05:50:14;;;;;;;21.38;11.93;;;;;;;;;;5053463;28;20171;-87
2021/03/24 05:52:43;;;;;;;22.05;12.02;;;;;;;;;;5059458;28;20021;-87
2021/03/24 05:55:24;;;;;;;24.98;12.90;;;;;;;;;;5060435;28;20108;-87
2021/03/24 05:58:06;;;;;;;26.15;15.20;;;;;;;;;;5068046;28;20020;-87
2021/03/24 06:00:35;;;;;;;35.88;15.80;;;;;;;;;;5043950;28;20540;-86
2021/03/24 06:03:36;;;;;;;30.58;16.33;;;;;;;;;;5053760;28;20032;-86
2021/03/24 06:06:12;;;;;;;31.35;15.82;;;;;;;;;;5014211;28;20061;-86
2021/03/24 06:08:56;;;;;;;31.55;17.95;;;;;;;;;;5036459;28;20124;-86
2021/03/24 06:11:34;;;;;;;45.60;22.77;;;;;;;;;;5052214;28;20102;-86
2021/03/24 06:14:14;;;;;;;41.60;24.42;;;;;;;;;;5048011;28;20029;-87
2021/03/24 06:16:40;;;;;;;45.65;24.95;;;;;;;;;;5041022;28;20029;-87
2021/03/24 06:19:08;;;;;;;45.90;26.52;;;;;;;;;;5054471;28;20032;-87
2021/03/24 06:21:44;;;;;;;60.60;31.77;;;;;;;;;;5061106;28;20017;-87
2021/03/24 06:24:13;;;;;;;57.75;29.38;;;;;;;;;;5070717;28;20055;-87
2021/03/24 06:26:58;;;;;;;55.92;30.13;;;;;;;;;;5068473;28;20024;-87
2021/03/24 06:29:24;;;;;;;58.03;31.67;;;;;;;;;;5048737;28;20040;-87
2021/03/24 06:32:02;;;;;;;60.50;31.88;;;;;;;;;;5053969;28;20021;-86
2021/03/24 06:34:38;;;;;;;64.68;33.53;;;;;;;;;;5070117;28;20075;-88
2021/03/24 06:37:05;;;;;;;66.38;34.10;;;;;;;;;;5053865;28;20029;-86
2021/03/24 06:39:50;;;;;;;64.28;32.78;;;;;;;;;;5053963;28;20494;-87
2021/03/24 06:42:33;;;;;;;62.17;34.72;;;;;;;;;;5053945;28;20033;-87
2021/03/24 06:45:22;;;;;;;65.55;35.60;;;;;;;;;;5048404;28;20025;-86
2021/03/24 06:48:07;;;;;;;70.57;37.08;;;;;;;;;;5051274;28;20048;-87
2021/03/24 06:51:05;;;;;;;70.22;35.00;;;;;;;;;;5045631;28;20084;-87
2021/03/24 06:53:51;;;;;;;68.82;37.33;;;;;;;;;;5011827;28;20145;-87
2021/03/24 06:56:36;;;;;;;70.75;38.17;;;;;;;;;;5053056;28;20484;-87
2021/03/24 06:59:21;;;;;;;77.38;38.88;;;;;;;;;;5063062;28;20036;-86
2021/03/24 07:01:49;;;;;;;70.57;37.40;;;;;;;;;;5042012;28;20037;-87
2021/03/24 07:04:25;;;;;;;71.18;38.05;;;;;;;;;;5069327;28;20074;-87
2021/03/24 07:06:59;;;;;;;71.40;37.63;;;;;;;;;;5054990;28;20436;-86
2021/03/24 07:09:46;;;;;;;75.00;37.97;;;;;;;;;;5070041;28;20114;-87
2021/03/24 07:12:22;;;;;;;76.10;39.10;;;;;;;;;;5040691;28;20025;-87
2021/03/24 07:14:58;;;;;;;75.93;37.80;;;;;;;;;;5053838;28;20048;-86
2021/03/24 07:17:43;;;;;;;77.32;38.58;;;;;;;;;;5052719;28;20029;-87
2021/03/24 07:20:15;;;;;;;68.82;37.13;;;;;;;;;;5052992;28;20029;-87
2021/03/24 07:22:52;;;;;;;73.13;37.05;;;;;;;;;;5051187;28;20392;-86
2021/03/24 07:25:37;;;;;;;71.80;38.17;;;;;;;;;;5053187;28;20104;-87
2021/03/24 07:28:06;;;;;;;73.57;37.35;;;;;;;;;;5053525;28;20025;-86
2021/03/24 07:30:39;;;;;;;72.20;37.28;;;;;;;;;;5069886;28;20044;-86
2021/03/24 07:33:15;;;;;;;75.65;38.92;;;;;;;;;;5054258;28;20064;-87
2021/03/24 07:35:56;;;;;;;71.88;37.08;;;;;;;;;;5052303;28;20032;-87
2021/03/24 07:38:41;;;;;;;74.53;37.88;;;;;;;;;;5052839;28;20061;-87
2021/03/24 07:41:26;;;;;;;77.07;37.75;;;;;;;;;;5053196;28;20068;-87
2021/03/24 07:43:51;;;;;;;69.57;35.85;;;;;;;;;;5054337;28;20558;-87
2021/03/24 07:46:44;;;;;;;73.55;37.47;;;;;;;;;;5053141;28;20025;-86
2021/03/24 07:49:10;;;;;;;73.15;39.28;;;;;;;;;;5022685;28;20044;-87
2021/03/24 07:51:36;;;;;;;70.70;37.17;;;;;;;;;;5052334;28;20025;-88
2021/03/24 07:54:17;;;;;;;66.05;35.15;;;;;;;;;;5041680;28;20028;-87
2021/03/24 07:56:47;;;;;;;76.45;36.55;;;;;;;;;;5054539;28;20115;-87
2021/03/24 07:59:22;;;;;;;69.55;34.83;;;;;;;;;;5045183;28;20024;-88
2021/03/24 08:02:07;;;;;;;72.50;37.08;;;;;;;;;;5052090;28;20028;-85
2021/03/24 08:04:52;;;;;;;71.00;36.33;;;;;;;;;;5051779;28;20468;-87
2021/03/24 08:07:24;;;;;;;75.97;37.40;;;;;;;;;;5039748;28;20037;-87
2021/03/24 08:10:03;;;;;;;77.05;36.47;;;;;;;;;;5054009;28;20160;-88
2021/03/24 08:12:53;;;;;;;69.35;36.03;;;;;;;;;;5051704;28;20048;-88
2021/03/24 08:15:23;;;;;;;70.57;34.00;;;;;;;;;;5052099;28;20488;-88
2021/03/24 08:17:49;;;;;;;72.82;34.83;;;;;;;;;;5049714;28;20032;-89
2021/03/24 08:20:24;;;;;;;73.47;36.22;;;;;;;;;;5054603;28;20033;-88
2021/03/24 08:22:52;;;;;;;69.22;36.67;;;;;;;;;;5051699;28;20082;-87
2021/03/24 08:25:37;;;;;;;66.90;34.88;;;;;;;;;;5051300;28;20025;-88
2021/03/24 08:28:06;;;;;;;65.93;36.72;;;;;;;;;;5052732;28;20039;-87
2021/03/24 08:30:49;;;;;;;75.80;36.55;;;;;;;;;;5057257;28;20083;-87
2021/03/24 08:33:15;;;;;;;68.45;34.30;;;;;;;;;;5057922;28;20029;-87
2021/03/24 08:35:55;;;;;;;65.30;35.83;;;;;;;;;;5048954;28;20032;-87
2021/03/24 08:38:30;;;;;;;67.22;34.03;;;;;;;;;;5048145;28;20131;-87
2021/03/24 08:41:09;;;;;;;70.38;34.20;;;;;;;;;;5052481;28;20036;-87
2021/03/24 08:43:54;;;;;;;76.20;37.30;;;;;;;;;;5051801;28;20037;-87
2021/03/24 08:46:27;;;;;;;69.47;37.22;;;;;;;;;;5051699;28;20083;-87
2021/03/24 08:48:58;;;;;;;75.75;38.58;;;;;;;;;;5050692;28;20029;-86
2021/03/24 08:51:42;;;;;;;71.25;36.75;;;;;;;;;;5051374;28;20034;-87
2021/03/24 08:54:08;;;;;;;;;;;;;;;;;;5050827;28;20021;-87
2021/03/24 08:56:40;;;;;;;65.47;35.13;;;;;;;;;;5051425;28;20253;-87
2021/03/24 08:59:18;;;;;;;73.20;37.13;;;;;;;;;;5051428;28;20411;-88
2021/03/24 09:01:59;;;;;;;71.13;37.65;;;;;;;;;;5048867;28;20548;-88
2021/03/24 09:04:42;;;;;;;82.35;39.97;;;;;;;;;;5047993;28;20522;-88
2021/03/24 09:07:27;;;;;;;72.20;36.50;;;;;;;;;;5051621;28;20472;-88
2021/03/24 09:10:11;;;;;;;70.80;37.03;;;;;;;;;;5052040;28;20186;-88
2021/03/24 09:12:40;;;;;;;72.60;36.97;;;;;;;;;;5062249;28;20020;-88
2021/03/24 09:15:12;;;;;;;76.00;37.67;;;;;;;;;;5070729;28;20100;-87
2021/03/24 09:17:56;;;;;;;76.50;38.88;;;;;;;;;;5083205;28;20031;-87
2021/03/24 09:20:22;;;;;;;77.15;37.88;;;;;;;;;;5052398;28;20025;-87
2021/03/24 09:23:00;;;;;;;75.07;36.42;;;;;;;;;;5068475;28;20102;-87
2021/03/24 09:25:33;;;;;;;79.78;38.25;;;;;;;;;;5051849;28;20072;-87
2021/03/24 09:28:08;;;;;;;72.78;35.60;;;;;;;;;;5051762;28;20435;-87
2021/03/24 09:30:55;;;;;;;70.97;38.28;;;;;;;;;;5050242;28;20024;-88
2021/03/24 09:33:44;;;;;;;72.20;38.08;;;;;;;;;;5047035;28;20025;-87
2021/03/24 09:36:19;;;;;;;74.75;37.15;;;;;;;;;;5052712;28;20029;-87
2021/03/24 09:38:46;;;;;;;73.78;37.33;;;;;;;;;;5062573;28;20074;-87
2021/03/24 09:41:18;;;;;;;70.25;36.92;;;;;;;;;;5054737;28;20496;-87
2021/03/24 09:43:46;;;;;;;74.80;38.03;;;;;;;;;;5055958;28;20029;-87
2021/03/24 09:46:17;;;;;;;69.20;37.33;;;;;;;;;;5051197;28;20039;-87
2021/03/24 09:48:50;;;;;;;71.68;36.90;;;;;;;;;;5054867;28;20035;-87
2021/03/24 09:51:19;;;;;;;76.30;38.42;;;;;;;;;;5061770;28;20379;-87
2021/03/24 09:53:45;;;;;;;66.57;35.97;;;;;;;;;;5053305;28;20036;-89
2021/03/24 09:56:21;;;;;;;68.68;35.47;;;;;;;;;;5058517;28;20507;-87
2021/03/24 09:59:00;;;;;;;74.70;37.17;;;;;;;;;;5051778;28;20376;-87
2021/03/24 10:01:38;;;;;;;65.50;36.30;;;;;;;;;;5058181;28;20082;-87
2021/03/24 10:04:23;;;;;;;76.53;36.53;;;;;;;;;;5076512;28;20025;-87
2021/03/24 10:06:49;;;;;;;74.55;37.22;;;;;;;;;;5058364;28;20059;-87
2021/03/24 10:09:20;;;;;;;69.00;36.88;;;;;;;;;;5053265;28;20392;-87
2021/03/24 10:11:49;;;;;;;74.00;36.67;;;;;;;;;;5064794;28;20463;-87
2021/03/24 10:14:26;;;;;;;71.07;36.47;;;;;;;;;;5063253;28;20028;-87
2021/03/24 10:16:59;;;;;;;67.45;36.28;;;;;;;;;;5054824;28;20057;-87
2021/03/24 10:19:39;;;;;;;73.15;37.03;;;;;;;;;;5058915;28;20029;-87
2021/03/24 10:22:15;;;;;;;64.57;34.97;;;;;;;;;;5053147;28;20470;-87
2021/03/24 10:24:43;;;;;;;70.38;35.60;;;;;;;;;;5057600;28;20044;-88
2021/03/24 10:27:11;;;;;;;59.53;32.28;;;;;;;;;;5053530;28;20032;-87
2021/03/24 10:29:38;;;;;;;55.95;31.33;;;;;;;;;;5056489;28;20032;-87
2021/03/24 10:32:22;;;;;;;57.80;31.33;;;;;;;;;;5054650;28;20486;-87
2021/03/24 10:34:49;;;;;;;62.95;33.63;;;;;;;;;;5049028;28;20036;-86
2021/03/24 10:37:45;;;;;;;55.85;30.25;;;;;;;;;;5055909;28;20025;-87
2021/03/24 10:40:15;;;;;;;55.20;28.65;;;;;;;;;;5049617;28;20496;-87
2021/03/24 10:42:52;;;;;;;45.85;26.40;;;;;;;;;;5060847;28;20063;-87
2021/03/24 10:45:21;;;;;;;46.63;25.58;;;;;;;;;;5048739;28;20043;-87
2021/03/24 10:47:54;;;;;;;53.78;27.73;;;;;;;;;;5051330;28;20515;-87
2021/03/24 10:50:39;;;;;;;47.17;26.83;;;;;;;;;;5049553;28;20024;-87
2021/03/24 10:53:21;;;;;;;49.55;26.55;;;;;;;;;;5047631;28;20033;-87
2021/03/24 10:55:56;;;;;;;47.42;24.63;;;;;;;;;;5051958;28;20074;-88
2021/03/24 10:58:22;;;;;;;47.58;26.05;;;;;;;;;;5055272;28;20086;-87
2021/03/24 11:00:50;;;;;;;48.13;26.10;;;;;;;;;;5051242;28;20051;-87
2021/03/24 11:03:21;;;;;;;49.70;26.52;;;;;;;;;;5053266;28;20096;-88
2021/03/24 11:05:56;;;;;;;45.58;25.70;;;;;;;;;;5081871;28;20028;-87
2021/03/24 11:08:31;;;;;;;45.95;23.85;;;;;;;;;;5050776;28;20035;-88
2021/03/24 11:11:00;;;;;;;44.08;24.88;;;;;;;;;;5049334;28;20124;-88
2021/03/24 11:13:29;;;;;;;42.97;23.27;;;;;;;;;;5044475;28;20338;-88
2021/03/24 11:15:58;;;;;;;47.65;25.25;;;;;;;;;;5048990;28;20029;-88
2021/03/24 11:18:26;;;;;;;48.42;25.17;;;;;;;;;;5057112;28;20027;-87
2021/03/24 11:20:54;;;;;;;46.03;25.33;;;;;;;;;;5055967;28;20078;-88
2021/03/24 11:23:33;;;;;;;47.67;27.10;;;;;;;;;;5054451;28;20267;-88
2021/03/24 11:26:03;;;;;;;51.72;28.65;;;;;;;;;;5055141;28;20056;-88
2021/03/24 11:28:31;;;;;;;53.88;28.02;;;;;;;;;;5057014;28;20021;-88
2021/03/24 11:31:12;;;;;;;48.30;27.40;;;;;;;;;;5071350;28;20035;-88
2021/03/24 11:33:44;;;;;;;48.58;26.38;;;;;;;;;;5041413;28;20059;-87
2021/03/24 11:36:10;;;;;;;47.10;25.52;;;;;;;;;;5063041;28;20033;-88
2021/03/24 11:38:48;;;;;;;43.38;24.20;;;;;;;;;;5051228;28;20075;-88
2021/03/24 11:41:25;;;;;;;49.25;24.67;;;;;;;;;;5051543;28;20125;-88
2021/03/24 11:44:12;;;;;;;45.92;24.00;;;;;;;;;;5068440;28;20021;-88
2021/03/24 11:46:44;;;;;;;41.95;22.23;;;;;;;;;;5053999;28;20033;-88
2021/03/24 11:49:28;;;;;;;38.53;22.67;;;;;;;;;;5058604;28;20037;-88
2021/03/24 11:51:57;;;;;;;43.03;23.17;;;;;;;;;;5050004;28;20033;-88
2021/03/24 11:54:42;;;;;;;38.03;23.15;;;;;;;;;;5054415;28;20060;-87
2021/03/24 11:57:16;;;;;;;41.85;22.60;;;;;;;;;;5052330;28;20032;-88
2021/03/24 11:59:42;;;;;;;39.53;21.95;;;;;;;;;;5065663;28;20067;-88
2021/03/24 12:02:11;;;;;;;38.65;21.83;;;;;;;;;;5065106;28;20034;-89
2021/03/24 12:04:46;;;;;;;39.10;21.02;;;;;;;;;;5041604;28;20063;-89
2021/03/24 12:07:30;;;;;;;38.03;21.77;;;;;;;;;;5060701;28;20026;-89
2021/03/24 12:09:56;;;;;;;;;;;;;;;;;;5069216;28;20112;-89
2021/03/24 12:12:22;;;;;;;35.95;21.25;;;;;;;;;;5052785;28;19951;-89
2021/03/24 12:15:00;;;;;;;38.15;20.80;;;;;;;;;;5052197;28;20056;-88
2021/03/24 12:17:34;;;;;;;40.40;21.45;;;;;;;;;;5052373;28;20492;-88
2021/03/24 12:20:11;;;;;;;33.10;19.65;;;;;;;;;;5052055;28;20032;-89
2021/03/24 12:22:38;;;;;;;30.13;17.90;;;;;;;;;;5051251;28;20067;-89
2021/03/24 12:25:14;;;;;;;36.38;19.98;;;;;;;;;;5053346;28;20124;-89
2021/03/24 12:27:44;;;;;;;34.35;18.98;;;;;;;;;;5051994;28;20028;-89
2021/03/24 12:30:47;;;;;;;34.03;20.42;;;;;;;;;;5061350;28;20087;-89
2021/03/24 12:33:13;;;;;;;34.27;20.60;;;;;;;;;;4973559;28;20586;-89
2021/03/24 12:35:40;;;;;;;37.75;19.65;;;;;;;;;;5037451;28;20436;-89
2021/03/24 12:38:20;;;;;;;36.92;21.92;;;;;;;;;;5050738;28;20025;-89
2021/03/24 12:40:55;;;;;;;33.22;19.10;;;;;;;;;;5051352;28;20028;-90
2021/03/24 12:43:41;;;;;;;29.65;18.35;;;;;;;;;;5051459;28;20053;-89
2021/03/24 12:46:07;;;;;;;35.92;19.17;;;;;;;;;;5042901;28;20052;-89
2021/03/24 12:48:35;;;;;;;32.63;18.15;;;;;;;;;;5065952;28;20481;-89
2021/03/24 12:51:10;;;;;;;32.85;19.52;;;;;;;;;;5058801;28;20087;-89
2021/03/24 12:53:49;;;;;;;37.58;20.02;;;;;;;;;;5059999;28;20519;-89
2021/03/24 12:56:21;;;;;;;30.02;18.33;;;;;;;;;;5047451;28;20536;-89
2021/03/24 12:58:48;;;;;;;30.83;19.00;;;;;;;;;;5045916;28;20060;-89
2021/03/24 13:01:33;;;;;;;28.10;16.95;;;;;;;;;;5067186;28;20037;-89
2021/03/24 13:03:59;;;;;;;31.15;17.77;;;;;;;;;;5059361;28;20427;-90
2021/03/24 13:06:40;;;;;;;33.38;17.92;;;;;;;;;;5063985;28;20029;-90
2021/03/24 13:09:06;;;;;;;30.60;19.35;;;;;;;;;;5074211;28;20032;-89
2021/03/24 13:11:48;;;;;;;29.30;16.83;;;;;;;;;;5066618;28;20444;-90
2021/03/24 13:14:20;;;;;;;28.20;17.75;;;;;;;;;;5054040;28;20033;-89
2021/03/24 13:16:53;;;;;;;30.25;18.00;;;;;;;;;;5056873;28;20057;-89
2021/03/24 13:19:23;;;;;;;26.38;17.27;;;;;;;;;;5057502;28;20029;-89
2021/03/24 13:22:01;;;;;;;25.50;16.65;;;;;;;;;;5055282;28;20033;-89
2021/03/24 13:24:38;;;;;;;26.70;16.67;;;;;;;;;;5055711;28;20373;-90
2021/03/24 13:27:11;;;;;;;26.33;17.00;;;;;;;;;;5055473;28;20032;-90
2021/03/24 13:29:45;;;;;;;27.50;17.95;;;;;;;;;;5055428;28;20477;-90
2021/03/24 13:32:34;;;;;;;28.58;18.25;;;;;;;;;;5055093;28;20025;-90
2021/03/24 13:35:04;;;;;;;27.02;17.35;;;;;;;;;;5055113;28;20515;-90
2021/03/24 13:37:30;;;;;;;30.60;19.20;;;;;;;;;;5055401;28;20122;-90
2021/03/24 13:40:12;;;;;;;29.20;18.15;;;;;;;;;;5055449;28;20032;-90
2021/03/24 13:42:43;;;;;;;26.98;17.45;;;;;;;;;;5053887;28;20383;-91
2021/03/24 13:45:18;;;;;;;28.38;18.75;;;;;;;;;;5053016;28;20029;-90
2021/03/24 13:47:46;;;;;;;31.60;19.13;;;;;;;;;;5054395;28;20113;-90
2021/03/24 13:50:18;;;;;;;26.42;17.77;;;;;;;;;;5054848;28;20039;-90
2021/03/24 13:52:49;;;;;;;29.05;18.20;;;;;;;;;;5053593;28;20025;-90
2021/03/24 13:55:34;;;;;;;29.25;18.88;;;;;;;;;;5054444;28;20020;-90
2021/03/24 13:58:10;;;;;;;32.25;20.58;;;;;;;;;;5059783;28;20119;-90
2021/03/24 14:00:54;;;;;;;30.77;17.92;;;;;;;;;;5067553;28;20065;-90
2021/03/24 14:03:26;;;;;;;36.28;21.00;;;;;;;;;;5055092;28;20041;-90
2021/03/24 14:06:11;;;;;;;29.42;19.58;;;;;;;;;;5057374;28;20476;-89
2021/03/24 14:08:40;;;;;;;38.72;19.38;;;;;;;;;;5053096;28;20120;-91
2021/03/24 14:11:18;;;;;;;35.70;21.40;;;;;;;;;;5054887;28;20025;-90
2021/03/24 14:13:56;;;;;;;28.35;19.08;;;;;;;;;;5054605;28;20802;-91
2021/03/24 14:16:41;;;;;;;33.28;21.13;;;;;;;;;;5061360;28;20020;-91
2021/03/24 14:19:20;;;;;;;33.10;20.17;;;;;;;;;;5051615;28;20125;-90
2021/03/24 14:21:52;;;;;;;32.35;20.63;;;;;;;;;;5051300;28;20080;-90
2021/03/24 14:24:18;;;;;;;36.90;21.08;;;;;;;;;;5055527;28;20105;-90
2021/03/24 14:26:46;;;;;;;32.20;20.23;;;;;;;;;;5062805;28;20032;-91
2021/03/24 14:29:18;;;;;;;42.78;20.33;;;;;;;;;;5054763;28;20032;-90
2021/03/24 14:32:03;;;;;;;37.77;20.57;;;;;;;;;;5054696;28;20083;-90
2021/03/24 14:34:44;;;;;;;36.50;22.25;;;;;;;;;;5047763;28;20037;-92
2021/03/24 14:37:29;;;;;;;32.17;20.35;;;;;;;;;;5051379;28;20068;-90
2021/03/24 14:40:13;;;;;;;34.70;19.55;;;;;;;;;;5053443;28;20115;-90
2021/03/24 14:42:52;;;;;;;36.03;22.52;;;;;;;;;;5055075;28;20040;-91
2021/03/24 14:45:18;;;;;;;37.47;22.08;;;;;;;;;;5034806;28;20040;-91
2021/03/24 14:47:50;;;;;;;40.00;23.90;;;;;;;;;;5036332;28;20524;-91
2021/03/24 14:50:33;;;;;;;36.67;21.97;;;;;;;;;;5040917;28;20082;-90
2021/03/24 14:53:01;;;;;;;37.60;21.63;;;;;;;;;;5054456;28;20730;-89
2021/03/24 14:55:27;;;;;;;38.28;23.00;;;;;;;;;;5061711;28;20032;-90